Time;durP1;ratioP1;P1;durP2;ratioP2;P2;SDS_P1;SDS_P2;PMS_P1;PMS_P2;Temp;Humidity;BMP_temperature;BMP_pressure;BME280_temperature;BME280_humidity;BME280_pressure;Samples;Min_cycle;Max_cycle;Signal;HPM_P1;HPM_P2
2022/07/02 00:00:44;;;;;;;390.35;261.42;;;;;;;14.97;100.00;99954.97;5052041;28;20304;-73
2022/07/02 00:03:14;;;;;;;393.85;272.77;;;;;;;14.93;100.00;99949.88;5051954;28;20730;-74
2022/07/02 00:05:47;;;;;;;389.02;254.98;;;;;;;14.72;100.00;99950.41;5051139;28;20300;-72
2022/07/02 00:08:13;;;;;;;400.08;274.10;;;;;;;14.72;100.00;99953.13;5051450;28;20276;-71
2022/07/02 00:10:41;;;;;;;397.83;255.13;;;;;;;14.58;100.00;99950.47;5051312;28;20213;-73
2022/07/02 00:13:09;;;;;;;397.38;253.52;;;;;;;14.53;100.00;99953.47;5051266;28;20259;-73
2022/07/02 00:15:36;;;;;;;402.23;274.75;;;;;;;14.50;100.00;99951.00;5051589;28;20261;-72
2022/07/02 00:18:04;;;;;;;401.42;267.98;;;;;;;14.48;100.00;99952.94;5051255;28;20287;-74
2022/07/02 00:20:32;;;;;;;395.30;247.50;;;;;;;14.42;100.00;99949.78;5051281;28;20298;-72
2022/07/02 00:22:58;;;;;;;391.52;245.45;;;;;;;14.48;100.00;99946.66;5050965;28;20200;-73
2022/07/02 00:25:28;;;;;;;395.17;261.42;;;;;;;14.33;100.00;99938.56;5051500;28;20240;-73
2022/07/02 00:27:57;;;;;;;392.98;242.35;;;;;;;14.33;100.00;99944.00;5051382;28;20200;-73
2022/07/02 00:30:24;;;;;;;388.08;245.60;;;;;;;14.39;100.00;99949.00;5051276;28;20194;-73
2022/07/02 00:32:51;;;;;;;396.08;258.25;;;;;;;14.37;100.00;99945.53;5050839;28;20277;-73
2022/07/02 00:35:20;;;;;;;386.98;251.57;;;;;;;14.19;100.00;99949.50;5051338;28;20186;-74
2022/07/02 00:37:48;;;;;;;389.05;256.33;;;;;;;14.11;100.00;99946.41;5054702;28;20284;-74
2022/07/02 00:40:17;;;;;;;388.13;243.35;;;;;;;14.15;100.00;99947.97;5055370;28;20554;-75
2022/07/02 00:42:44;;;;;;;391.88;259.33;;;;;;;14.22;100.00;99953.84;5054816;28;20203;-72
2022/07/02 00:45:11;;;;;;;391.98;246.40;;;;;;;14.38;100.00;99951.81;5055171;28;20802;-74
2022/07/02 00:47:41;;;;;;;384.35;234.80;;;;;;;14.32;100.00;99950.41;5055250;28;21073;-73
2022/07/02 00:50:09;;;;;;;391.60;253.30;;;;;;;14.21;100.00;99952.13;5055034;28;20644;-73
2022/07/02 00:52:37;;;;;;;389.70;240.60;;;;;;;13.97;100.00;99950.94;5054605;28;20234;-72
2022/07/02 00:55:04;;;;;;;390.05;247.85;;;;;;;13.75;100.00;99951.50;5054032;28;20197;-75
2022/07/02 00:57:33;;;;;;;386.13;240.68;;;;;;;13.71;100.00;99949.97;5054533;28;20185;-74
2022/07/02 01:00:00;;;;;;;385.75;236.82;;;;;;;13.74;100.00;99951.59;5054816;28;20188;-74
2022/07/02 01:02:28;;;;;;;382.35;229.23;;;;;;;13.73;100.00;99947.16;5054385;28;20295;-74
2022/07/02 01:04:56;;;;;;;383.33;215.65;;;;;;;13.62;100.00;99950.56;5053923;28;20711;-74
2022/07/02 01:07:23;;;;;;;389.13;233.00;;;;;;;13.69;100.00;99951.88;5054552;28;20641;-72
2022/07/02 01:12:41;;;;;;;389.58;241.52;;;;;;;13.70;100.00;99948.22;5054459;28;20807;-74
2022/07/02 01:15:09;;;;;;;386.90;242.25;;;;;;;13.65;100.00;99955.75;5053179;28;20196;-73
2022/07/02 01:17:36;;;;;;;382.25;215.73;;;;;;;13.63;100.00;99957.69;5054078;28;20273;-73
2022/07/02 01:20:03;;;;;;;391.90;243.60;;;;;;;13.60;100.00;99957.03;5054109;28;20189;-73
2022/07/02 01:22:35;;;;;;;382.52;228.90;;;;;;;13.64;100.00;99961.28;5053928;28;20243;-73
2022/07/02 01:25:02;;;;;;;389.15;239.05;;;;;;;13.53;100.00;99956.56;5054070;28;20191;-74
2022/07/02 01:27:29;;;;;;;381.02;225.52;;;;;;;13.51;100.00;99955.78;5054150;28;20234;-73
2022/07/02 01:29:56;;;;;;;386.55;216.48;;;;;;;13.71;100.00;99951.81;5053821;28;20200;-73
2022/07/02 01:32:22;;;;;;;388.63;227.13;;;;;;;13.89;100.00;99952.44;5053777;28;20278;-73
2022/07/02 01:34:51;;;;;;;394.38;225.00;;;;;;;13.76;100.00;99958.63;5053232;28;20264;-74
2022/07/02 01:37:19;;;;;;;391.40;215.15;;;;;;;13.83;100.00;99958.22;5054025;28;20279;-74
2022/07/02 01:39:48;;;;;;;382.77;218.35;;;;;;;13.51;100.00;99951.25;5054241;28;20299;-74
2022/07/02 01:42:16;;;;;;;384.70;236.13;;;;;;;13.46;100.00;99950.69;5053968;28;20671;-74
2022/07/02 01:44:45;;;;;;;391.60;225.65;;;;;;;13.35;100.00;99945.09;5052959;28;20290;-73
2022/07/02 01:47:12;;;;;;;390.33;226.25;;;;;;;13.66;100.00;99949.41;5053589;28;20300;-74
2022/07/02 01:49:40;;;;;;;380.40;224.82;;;;;;;13.64;100.00;99947.75;5052826;28;20249;-74
2022/07/02 01:52:07;;;;;;;375.50;210.18;;;;;;;13.43;100.00;99950.00;5053485;28;20279;-73
2022/07/02 01:54:35;;;;;;;385.45;217.80;;;;;;;13.34;100.00;99944.22;5053203;28;20286;-73
2022/07/02 01:57:03;;;;;;;389.70;228.55;;;;;;;13.38;100.00;99949.44;5053221;28;20534;-74
2022/07/02 01:59:30;;;;;;;389.95;224.98;;;;;;;13.17;100.00;99952.50;5053501;28;20184;-74
2022/07/02 02:01:56;;;;;;;386.70;222.32;;;;;;;13.19;100.00;99947.88;5053273;28;20291;-72
2022/07/02 02:04:23;;;;;;;381.17;222.65;;;;;;;13.14;100.00;99955.41;5052920;28;20282;-72
2022/07/02 02:06:50;;;;;;;389.17;222.13;;;;;;;13.17;100.00;99954.34;5053477;28;20298;-73
2022/07/02 02:09:16;;;;;;;391.30;228.30;;;;;;;13.15;100.00;99946.31;5053550;28;20696;-73
2022/07/02 02:11:43;;;;;;;392.30;217.10;;;;;;;13.14;100.00;99944.59;5053458;28;20277;-73
2022/07/02 02:14:11;;;;;;;379.25;208.27;;;;;;;13.05;100.00;99956.88;5052760;28;20697;-73
2022/07/02 02:16:38;;;;;;;385.45;213.85;;;;;;;13.05;100.00;99951.44;5053363;28;20349;-73
2022/07/02 02:19:06;;;;;;;384.00;219.35;;;;;;;13.07;100.00;99951.34;5052926;28;20193;-72
2022/07/02 02:21:33;;;;;;;391.10;222.88;;;;;;;13.06;100.00;99953.19;5053055;28;20285;-74
2022/07/02 02:24:00;;;;;;;381.63;216.57;;;;;;;13.04;100.00;99948.84;5053032;28;20646;-72
2022/07/02 02:26:27;;;;;;;387.23;220.93;;;;;;;12.90;100.00;99952.41;5052852;28;20299;-73
2022/07/02 02:28:54;;;;;;;392.25;225.63;;;;;;;12.85;100.00;99946.44;5053131;28;20267;-72
2022/07/02 02:31:23;;;;;;;382.17;214.65;;;;;;;12.79;100.00;99949.50;5052739;28;20200;-73
2022/07/02 02:33:50;;;;;;;381.77;198.07;;;;;;;12.81;100.00;99947.56;5052704;28;20218;-73
2022/07/02 02:36:16;;;;;;;380.13;209.15;;;;;;;12.86;100.00;99954.41;5052705;28;20191;-74
2022/07/02 02:38:46;;;;;;;385.58;210.52;;;;;;;12.71;100.00;99950.84;5053012;28;20498;-73
2022/07/02 02:41:13;;;;;;;391.30;232.23;;;;;;;12.94;100.00;99948.56;5052894;28;20199;-73
2022/07/02 02:43:40;;;;;;;392.25;237.82;;;;;;;12.94;100.00;99944.00;5052866;28;20277;-73
2022/07/02 02:46:06;;;;;;;386.48;224.88;;;;;;;13.05;100.00;99948.75;5052615;28;20771;-73
2022/07/02 02:48:36;;;;;;;384.75;217.18;;;;;;;12.98;100.00;99946.50;5052867;28;20604;-73
2022/07/02 02:51:04;;;;;;;382.90;213.60;;;;;;;12.88;100.00;99949.78;5051930;28;20238;-73
2022/07/02 02:53:31;;;;;;;381.27;202.52;;;;;;;12.88;100.00;99955.19;5052745;28;20621;-73
2022/07/02 02:55:59;;;;;;;387.88;213.13;;;;;;;13.10;100.00;99960.13;5052236;28;20194;-72
2022/07/02 02:58:26;;;;;;;381.02;201.48;;;;;;;13.01;100.00;99958.00;5052686;28;20220;-72
2022/07/02 03:00:53;;;;;;;380.42;206.40;;;;;;;12.90;100.00;99958.69;5052323;28;20219;-73
2022/07/02 03:03:20;;;;;;;393.23;228.95;;;;;;;12.75;100.00;99953.34;5052586;28;20698;-73
2022/07/02 03:05:48;;;;;;;381.48;205.57;;;;;;;12.62;100.00;99967.63;5051806;28;20298;-73
2022/07/02 03:08:14;;;;;;;380.17;211.40;;;;;;;12.62;100.00;99967.63;5052120;28;20294;-73
2022/07/02 03:10:41;;;;;;;378.08;193.02;;;;;;;12.59;100.00;99967.78;5052537;28;20810;-73
2022/07/02 03:13:07;;;;;;;375.52;191.50;;;;;;;12.62;100.00;99974.88;5052084;28;20643;-73
2022/07/02 03:15:34;;;;;;;384.75;213.05;;;;;;;12.53;100.00;99976.28;5052369;28;20212;-72
2022/07/02 03:18:01;;;;;;;385.55;211.52;;;;;;;12.42;100.00;99966.13;5051868;28;20186;-72
2022/07/02 03:20:28;;;;;;;388.20;210.82;;;;;;;12.45;100.00;99963.22;5052352;28;20293;-72
2022/07/02 03:22:56;;;;;;;376.33;207.43;;;;;;;12.58;100.00;99973.31;5051740;28;20283;-73
2022/07/02 03:25:22;;;;;;;383.10;210.38;;;;;;;12.62;100.00;99970.31;5052173;28;20215;-73
2022/07/02 03:27:49;;;;;;;386.90;193.23;;;;;;;12.45;100.00;99970.47;5051197;28;20310;-73
2022/07/02 03:30:16;;;;;;;377.55;183.52;;;;;;;12.42;100.00;99973.34;5052040;28;20193;-73
2022/07/02 03:32:43;;;;;;;383.38;214.18;;;;;;;12.49;100.00;99982.81;5052068;28;20572;-73
2022/07/02 03:35:09;;;;;;;382.02;195.07;;;;;;;12.51;100.00;99978.19;5051695;28;20273;-73
2022/07/02 03:37:36;;;;;;;384.60;200.38;;;;;;;12.41;100.00;99979.69;5051395;28;20277;-73
2022/07/02 03:40:05;;;;;;;387.85;212.77;;;;;;;12.38;100.00;99979.91;5051676;28;20720;-72
2022/07/02 03:42:31;;;;;;;387.27;198.88;;;;;;;12.44;100.00;99982.25;5051837;28;20192;-73
2022/07/02 03:44:58;;;;;;;391.63;209.73;;;;;;;12.44;100.00;99987.63;5050886;28;20281;-73
2022/07/02 03:47:25;;;;;;;371.50;185.98;;;;;;;12.49;100.00;99989.09;5051848;28;20649;-73
2022/07/02 03:49:51;;;;;;;364.58;183.95;;;;;;;12.55;100.00;99985.16;5051523;28;20186;-73
2022/07/02 03:52:18;;;;;;;381.60;192.70;;;;;;;12.52;100.00;99975.38;5051495;28;20201;-73
2022/07/02 03:54:44;;;;;;;385.90;207.30;;;;;;;12.36;100.00;99979.97;5051690;28;20222;-73
2022/07/02 03:57:12;;;;;;;379.63;195.20;;;;;;;12.37;100.00;99980.84;5051328;28;20293;-73
2022/07/02 03:59:39;;;;;;;383.40;202.93;;;;;;;12.52;100.00;99983.50;5051756;28;20593;-73
2022/07/02 04:02:06;;;;;;;379.77;202.57;;;;;;;12.61;100.00;99983.91;5051476;28;20278;-72
2022/07/02 04:04:32;;;;;;;384.27;191.82;;;;;;;12.72;100.00;99984.13;5051589;28;20688;-73
2022/07/02 04:06:59;;;;;;;379.50;193.45;;;;;;;12.62;100.00;99975.72;5051240;28;20293;-73
2022/07/02 04:09:25;;;;;;;382.13;205.60;;;;;;;12.68;100.00;99978.03;5051698;28;20701;-73
2022/07/02 04:11:52;;;;;;;384.73;210.95;;;;;;;12.59;100.00;99985.84;5053475;28;20663;-72
2022/07/02 04:14:20;;;;;;;381.70;190.60;;;;;;;12.73;100.00;99973.25;5055460;28;20199;-74
2022/07/02 04:16:47;;;;;;;380.90;202.60;;;;;;;12.90;100.00;99969.47;5055114;28;20275;-72
2022/07/02 04:19:14;;;;;;;384.33;203.48;;;;;;;12.78;100.00;99974.78;5055541;28;20291;-72
2022/07/02 04:21:40;;;;;;;378.73;205.13;;;;;;;12.64;100.00;99984.59;5055403;28;20600;-72
2022/07/02 04:24:07;;;;;;;380.70;210.38;;;;;;;12.63;100.00;99977.44;5055422;28;20713;-74
2022/07/02 04:26:34;;;;;;;373.75;193.90;;;;;;;12.61;100.00;99979.38;5055133;28;20278;-74
2022/07/02 04:29:01;;;;;;;376.52;204.07;;;;;;;12.69;100.00;99971.69;5055064;28;20190;-73
2022/07/02 04:31:29;;;;;;;374.00;192.75;;;;;;;12.71;100.00;99969.75;5055174;28;20217;-73
2022/07/02 04:33:56;;;;;;;380.38;206.40;;;;;;;12.84;100.00;99971.69;5053193;28;20203;-72
2022/07/02 04:36:23;;;;;;;377.60;207.15;;;;;;;12.91;100.00;99973.06;5055266;28;20638;-73
2022/07/02 04:38:49;;;;;;;376.35;208.88;;;;;;;13.04;100.00;99965.06;5054849;28;20290;-73
2022/07/02 04:41:16;;;;;;;377.48;206.60;;;;;;;12.86;100.00;99972.47;5054795;28;20278;-72
2022/07/02 04:43:42;;;;;;;378.02;213.65;;;;;;;12.91;100.00;99971.25;5055028;28;20621;-73
2022/07/02 04:46:09;;;;;;;377.27;205.30;;;;;;;13.01;100.00;99970.66;5054665;28;20278;-72
2022/07/02 04:48:37;;;;;;;386.15;200.10;;;;;;;13.10;100.00;99976.34;5054866;28;20614;-72
2022/07/02 04:51:05;;;;;;;376.25;208.25;;;;;;;13.24;100.00;99971.91;5055010;28;20736;-72
2022/07/02 04:53:31;;;;;;;379.75;215.50;;;;;;;13.37;100.00;99962.09;5054835;28;20611;-73
2022/07/02 04:55:58;;;;;;;382.38;221.07;;;;;;;13.36;100.00;99963.03;5055058;28;20633;-73
2022/07/02 04:58:25;;;;;;;382.15;222.20;;;;;;;13.45;100.00;99969.72;5054671;28;20279;-73
2022/07/02 05:00:52;;;;;;;383.63;226.73;;;;;;;13.51;100.00;99977.44;5054448;28;20202;-74
2022/07/02 05:03:18;;;;;;;384.98;230.35;;;;;;;13.62;100.00;99980.31;5055055;28;20188;-73
2022/07/02 05:05:47;;;;;;;387.25;235.68;;;;;;;13.94;100.00;99977.34;5054230;28;20196;-73
2022/07/02 05:08:13;;;;;;;389.48;227.60;;;;;;;13.92;100.00;99973.88;5053893;28;20219;-74
2022/07/02 05:10:40;;;;;;;380.60;218.25;;;;;;;13.88;100.00;99975.91;5054713;28;20227;-73
2022/07/02 05:13:07;;;;;;;396.15;242.77;;;;;;;14.04;100.00;99974.88;5054273;28;20318;-73
2022/07/02 05:15:33;;;;;;;395.80;251.27;;;;;;;14.29;100.00;99977.72;5054110;28;20225;-74
2022/07/02 05:18:00;;;;;;;398.60;264.05;;;;;;;14.47;100.00;99977.41;5053487;28;20275;-73
2022/07/02 05:20:28;;;;;;;399.27;261.80;;;;;;;14.57;100.00;99975.84;5054055;28;20292;-73
2022/07/02 05:22:55;;;;;;;391.05;243.30;;;;;;;14.82;100.00;99969.59;5052804;28;20547;-73
2022/07/02 05:25:22;;;;;;;402.92;261.20;;;;;;;14.79;100.00;99969.81;5054223;28;20209;-73
2022/07/02 05:27:49;;;;;;;391.80;257.17;;;;;;;14.97;100.00;99968.53;5053846;28;20579;-74
2022/07/02 05:30:15;;;;;;;390.55;259.40;;;;;;;15.26;100.00;99967.41;5053756;28;20239;-74
2022/07/02 05:32:42;;;;;;;412.65;281.35;;;;;;;15.52;100.00;99962.84;5065922;28;20295;-74
2022/07/02 05:35:09;;;;;;;404.50;282.70;;;;;;;15.56;100.00;99967.06;5053747;28;20684;-74
2022/07/02 05:37:36;;;;;;;398.40;293.02;;;;;;;15.66;100.00;99964.53;5053180;28;20213;-73
2022/07/02 05:40:05;;;;;;;409.23;322.15;;;;;;;16.00;100.00;99971.94;5052922;28;20190;-72
2022/07/02 05:42:32;;;;;;;405.55;303.17;;;;;;;16.02;100.00;99967.25;5053112;28;20292;-72
2022/07/02 05:44:59;;;;;;;409.45;315.88;;;;;;;16.16;100.00;99965.34;5053472;28;20612;-73
2022/07/02 05:47:26;;;;;;;401.20;293.98;;;;;;;16.35;99.35;99965.69;5052596;28;20205;-72
2022/07/02 05:49:53;;;;;;;415.63;314.52;;;;;;;16.62;96.93;99969.97;5052785;28;20208;-73
2022/07/02 05:52:19;;;;;;;404.67;322.33;;;;;;;16.73;94.97;99964.56;5053248;28;20617;-74
2022/07/02 05:54:46;;;;;;;411.60;325.55;;;;;;;16.80;93.94;99962.28;5051954;28;20197;-73
2022/07/02 05:57:14;;;;;;;408.55;316.48;;;;;;;16.85;93.99;99963.66;5052806;28;20270;-74
2022/07/02 05:59:41;;;;;;;387.52;279.08;;;;;;;16.75;92.52;99968.03;5052084;28;20193;-73
2022/07/02 06:02:07;;;;;;;408.30;318.30;;;;;;;16.57;95.61;99958.59;5053407;28;20647;-73
2022/07/02 06:04:34;;;;;;;420.42;343.60;;;;;;;16.70;95.22;99963.97;5051964;28;20253;-74
2022/07/02 06:10:00;;;;;;;406.98;312.67;;;;;;;17.21;90.76;99961.72;5009833;28;20376;-74
2022/07/02 06:12:28;;;;;;;422.13;360.10;;;;;;;17.26;89.80;99964.94;5010430;28;20324;-73
2022/07/02 06:14:54;;;;;;;416.17;348.35;;;;;;;17.20;90.58;99959.97;5029019;28;20203;-73
2022/07/02 06:17:21;;;;;;;418.92;344.73;;;;;;;17.01;92.78;99965.19;5052791;28;20222;-74
2022/07/02 06:19:48;;;;;;;410.77;328.77;;;;;;;17.36;90.30;99970.50;5052113;28;20196;-74
2022/07/02 06:22:15;;;;;;;430.58;352.73;;;;;;;17.70;88.03;99971.38;5052856;28;20214;-73
2022/07/02 06:24:42;;;;;;;416.10;354.63;;;;;;;17.66;87.06;99961.72;5052452;28;20199;-73
2022/07/02 06:27:08;;;;;;;424.70;350.95;;;;;;;17.65;88.25;99964.56;5051000;28;20287;-73
2022/07/02 06:29:36;;;;;;;423.55;371.92;;;;;;;17.79;87.67;99960.69;5043188;28;20289;-73
2022/07/02 06:32:04;;;;;;;431.70;383.75;;;;;;;18.09;84.87;99968.19;5042966;28;20188;-73
2022/07/02 06:34:30;;;;;;;425.75;360.95;;;;;;;18.22;83.83;99968.91;5051222;28;20265;-74
2022/07/02 06:36:57;;;;;;;438.58;387.05;;;;;;;18.50;82.18;99959.28;5051844;28;20287;-74
2022/07/02 06:39:23;;;;;;;430.75;382.05;;;;;;;18.53;82.10;99958.13;5052253;28;20279;-74
2022/07/02 06:44:34;;;;;;;427.90;380.73;;;;;;;18.55;82.00;99954.28;5051760;28;20200;-74
2022/07/02 06:47:02;;;;;;;466.92;418.50;;;;;;;18.58;81.54;99949.56;5051801;28;20271;-75
2022/07/02 06:49:29;;;;;;;474.10;425.40;;;;;;;18.81;80.44;99939.41;5052207;28;20197;-74
2022/07/02 06:51:56;;;;;;;472.70;424.30;;;;;;;18.98;79.21;99949.72;5052340;28;20220;-74
2022/07/02 06:54:22;;;;;;;460.50;412.30;;;;;;;19.37;76.26;99945.31;5051725;28;20250;-72
2022/07/02 06:56:49;;;;;;;468.30;419.77;;;;;;;19.51;75.10;99940.47;5051814;28;20199;-73
2022/07/02 06:59:15;;;;;;;500.90;451.48;;;;;;;19.70;74.01;99948.78;5052008;28;20291;-73
2022/07/02 07:01:42;;;;;;;525.15;475.30;;;;;;;20.07;71.30;99950.88;5051570;28;20280;-72
2022/07/02 07:04:10;;;;;;;506.17;456.63;;;;;;;20.40;70.07;99946.88;5051556;28;20296;-73
2022/07/02 07:06:36;;;;;;;483.60;435.10;;;;;;;20.53;69.15;99946.59;5051160;28;20279;-73
2022/07/02 07:09:04;;;;;;;506.70;457.20;;;;;;;20.77;67.64;99953.50;5051789;28;20263;-74
2022/07/02 07:11:30;;;;;;;506.25;457.27;;;;;;;20.92;66.63;99946.56;5051660;28;20620;-73
2022/07/02 07:13:57;;;;;;;564.75;514.58;;;;;;;21.04;65.04;99947.25;5051117;28;20229;-73
2022/07/02 07:16:24;;;;;;;526.55;477.23;;;;;;;21.28;64.86;99949.50;5050941;28;20189;-73
2022/07/02 07:18:51;;;;;;;567.17;516.88;;;;;;;21.39;63.86;99938.34;5051293;28;20209;-73
2022/07/02 07:21:19;;;;;;;549.08;498.98;;;;;;;21.58;62.06;99937.44;5051031;28;20186;-74
2022/07/02 07:23:46;;;;;;;538.08;488.42;;;;;;;21.83;60.63;99944.06;5050387;28;20288;-73
2022/07/02 07:26:13;;;;;;;552.70;502.77;;;;;;;21.62;60.62;99941.59;5051293;28;20288;-74
2022/07/02 07:28:39;;;;;;;604.88;553.75;;;;;;;21.81;60.25;99937.00;5051467;28;20379;-74
2022/07/02 07:31:06;;;;;;;565.65;515.97;;;;;;;21.94;59.50;99932.03;5053468;28;20312;-73
2022/07/02 07:33:32;;;;;;;565.75;515.75;;;;;;;22.11;59.06;99927.56;5058857;28;20569;-75
2022/07/02 07:35:59;;;;;;;565.92;516.22;;;;;;;22.23;58.42;99926.38;5051307;28;20284;-73
2022/07/02 07:38:28;;;;;;;582.17;531.72;;;;;;;22.31;56.96;99919.22;5051497;28;20534;-74
2022/07/02 07:40:54;;;;;;;615.28;564.35;;;;;;;22.61;55.73;99920.69;5051407;28;20657;-73
2022/07/02 07:43:21;;;;;;;585.42;534.88;;;;;;;22.12;56.45;99912.84;5050612;28;20643;-74
2022/07/02 07:45:48;;;;;;;589.30;538.75;;;;;;;21.99;58.25;99905.00;5049999;28;20193;-74
2022/07/02 07:48:14;;;;;;;580.38;530.15;;;;;;;22.21;55.72;99900.09;5050735;28;20213;-74
2022/07/02 07:50:41;;;;;;;592.40;541.92;;;;;;;22.21;55.82;99903.72;5050500;28;20516;-74
2022/07/02 07:53:08;;;;;;;600.67;550.08;;;;;;;22.52;55.78;99907.91;5050972;28;20192;-74
2022/07/02 07:55:36;;;;;;;587.75;537.40;;;;;;;22.87;53.55;99907.00;5051345;28;20680;-74
2022/07/02 07:58:03;;;;;;;642.50;589.22;;;;;;;22.91;53.84;99902.91;5050439;28;20293;-74
2022/07/02 08:00:30;;;;;;;606.90;555.72;;;;;;;23.13;51.52;99906.16;5050156;28;20276;-73
2022/07/02 08:02:56;;;;;;;641.40;589.85;;;;;;;23.36;48.96;99909.19;5047439;28;20591;-74
2022/07/02 08:05:23;;;;;;;630.28;579.58;;;;;;;23.56;48.42;99913.41;5051151;28;20224;-75
2022/07/02 08:07:50;;;;;;;616.00;565.75;;;;;;;23.31;48.89;99906.94;5050934;28;20722;-73
2022/07/02 08:10:17;;;;;;;635.13;584.30;;;;;;;23.00;50.48;99901.97;5051360;28;20639;-74
2022/07/02 08:12:45;;;;;;;628.15;577.55;;;;;;;22.89;50.63;99899.47;5050914;28;20236;-75
2022/07/02 08:15:12;;;;;;;651.10;599.38;;;;;;;23.19;49.81;99902.78;5051553;28;20293;-73
2022/07/02 08:17:39;;;;;;;617.05;566.40;;;;;;;23.27;49.08;99897.34;5050857;28;20280;-75
2022/07/02 08:20:07;;;;;;;648.78;597.15;;;;;;;23.53;48.41;99894.50;5050403;28;20216;-76
2022/07/02 08:22:35;;;;;;;660.90;609.38;;;;;;;23.93;46.85;99902.06;5049832;28;20235;-75
2022/07/02 08:25:02;;;;;;;624.30;573.33;;;;;;;24.18;46.42;99893.88;5049347;28;20288;-75
2022/07/02 08:27:29;;;;;;;631.35;580.63;;;;;;;23.93;47.42;99888.31;5050966;28;20240;-75
2022/07/02 08:29:57;;;;;;;640.83;589.95;;;;;;;23.91;45.86;99886.78;5050860;28;20263;-76
2022/07/02 08:32:24;;;;;;;649.45;598.55;;;;;;;23.89;46.19;99884.19;5050855;28;20273;-74
2022/07/02 08:34:50;;;;;;;669.05;616.90;;;;;;;24.01;46.50;99883.84;5050285;28;20288;-74
2022/07/02 08:37:17;;;;;;;419.75;377.77;;;;;;;24.22;45.13;99884.25;5050277;28;20372;-74
2022/07/02 08:39:44;;;;;;;399.85;358.15;;;;;;;24.34;44.15;99882.00;5050719;28;20288;-74
2022/07/02 08:42:11;;;;;;;414.10;372.02;;;;;;;24.48;42.66;99873.09;5050711;28;20237;-74
2022/07/02 08:44:39;;;;;;;429.35;386.58;;;;;;;24.29;42.90;99865.16;5050954;28;20199;-74
2022/07/02 08:47:09;;;;;;;458.95;415.60;;;;;;;23.77;44.66;99863.53;5051290;28;20236;-73
2022/07/02 08:49:39;;;;;;;464.73;421.65;;;;;;;23.87;44.56;99857.88;5050493;28;20206;-74
2022/07/02 08:52:07;;;;;;;452.15;409.45;;;;;;;24.17;43.32;99869.25;5051090;28;20244;-75
2022/07/02 08:54:35;;;;;;;448.95;406.23;;;;;;;24.20;43.54;99875.31;5050503;28;20201;-74
2022/07/02 09:00:09;;;;;;;462.98;419.92;;;;;;;24.58;41.49;99859.19;5054447;28;20188;-74
2022/07/02 09:02:38;;;;;;;448.33;405.58;;;;;;;24.90;40.73;99861.00;5054336;28;20201;-74
2022/07/02 09:05:06;;;;;;;476.45;432.60;;;;;;;24.70;39.17;99863.28;5054357;28;20596;-73
2022/07/02 09:07:36;;;;;;;693.63;641.33;;;;;;;24.80;39.67;99867.72;5054178;28;20269;-74
2022/07/02 09:10:04;;;;;;;688.97;637.15;;;;;;;24.66;39.45;99866.56;5054246;28;20576;-74
2022/07/02 09:12:31;;;;;;;717.25;664.95;;;;;;;24.62;38.43;99860.50;5053831;28;20733;-74
2022/07/02 09:15:01;;;;;;;727.20;673.95;;;;;;;24.52;39.01;99857.09;5052866;28;20229;-73
2022/07/02 09:17:27;;;;;;;680.58;629.03;;;;;;;24.84;39.51;99858.94;5054304;28;20201;-74
2022/07/02 09:19:55;;;;;;;693.15;641.45;;;;;;;24.61;39.47;99842.28;5053947;28;20205;-74
2022/07/02 09:22:31;;;;;;;670.58;619.17;;;;;;;24.19;40.00;99851.56;5053875;28;20225;-73
2022/07/02 09:25:07;;;;;;;713.10;660.92;;;;;;;24.42;39.69;99840.75;5053973;28;20196;-74
2022/07/02 09:27:34;;;;;;;716.83;664.75;;;;;;;24.70;39.48;99849.50;5053915;28;20212;-74
2022/07/02 09:30:01;;;;;;;481.95;438.17;;;;;;;24.52;40.13;99846.94;5053766;28;20292;-74
2022/07/02 09:32:27;;;;;;;439.17;396.67;;;;;;;24.77;40.03;99845.00;5053551;28;20291;-73
2022/07/02 09:34:55;;;;;;;482.45;437.88;;;;;;;25.15;39.71;99848.03;5053374;28;20276;-74
2022/07/02 09:37:23;;;;;;;494.65;450.92;;;;;;;25.41;39.51;99855.19;5053661;28;20299;-73
2022/07/02 09:39:52;;;;;;;492.85;449.02;;;;;;;25.16;39.22;99844.22;5053731;28;20690;-75
2022/07/02 09:42:26;;;;;;;502.77;458.70;;;;;;;24.83;39.72;99837.97;5053496;28;20292;-74
2022/07/02 09:44:54;;;;;;;488.95;445.48;;;;;;;24.92;40.03;99844.31;5053687;28;20205;-75
2022/07/02 09:47:30;;;;;;;478.25;434.70;;;;;;;25.15;40.10;99841.66;5054019;28;20280;-75
2022/07/02 09:50:03;;;;;;;423.13;381.40;;;;;;;25.18;39.82;99841.28;5053357;28;20296;-74
2022/07/02 09:52:29;;;;;;;471.88;428.63;;;;;;;25.15;39.76;99844.41;5053102;28;20232;-74
2022/07/02 09:54:56;;;;;;;503.75;459.73;;;;;;;25.24;39.38;99845.28;5052285;28;20280;-73
2022/07/02 09:57:22;;;;;;;520.13;475.50;;;;;;;25.12;38.60;99851.13;5053175;28;20205;-74
2022/07/02 09:59:49;;;;;;;474.73;431.45;;;;;;;25.31;38.63;99852.63;5053234;28;20628;-74
2022/07/02 10:02:22;;;;;;;504.55;460.73;;;;;;;25.35;38.53;99839.38;5053330;28;20229;-74
2022/07/02 10:04:52;;;;;;;502.58;458.77;;;;;;;25.29;38.49;99835.41;5053549;28;20672;-75
2022/07/02 10:07:22;;;;;;;523.30;478.85;;;;;;;25.33;38.31;99841.44;5053325;28;20205;-74
2022/07/02 10:09:49;;;;;;;509.27;465.25;;;;;;;25.66;37.55;99838.50;5052352;28;20205;-74
2022/07/02 10:12:17;;;;;;;492.23;448.63;;;;;;;25.80;37.31;99834.97;5052938;28;20283;-73
2022/07/02 10:14:45;;;;;;;528.88;484.20;;;;;;;25.83;36.49;99833.78;5053127;28;20643;-74
2022/07/02 10:17:13;;;;;;;505.27;461.17;;;;;;;25.63;37.43;99844.41;5052736;28;20217;-74
2022/07/02 10:19:40;;;;;;;516.20;472.08;;;;;;;25.52;37.84;99832.72;5052569;28;20284;-73
2022/07/02 10:22:07;;;;;;;495.88;451.40;;;;;;;25.62;38.25;99832.53;5052594;28;20276;-74
2022/07/02 10:24:36;;;;;;;486.48;441.17;;;;;;;25.69;37.99;99829.88;5052311;28;20185;-74
2022/07/02 10:27:04;;;;;;;516.03;471.20;;;;;;;25.80;38.14;99832.22;5052357;28;20206;-74
2022/07/02 10:29:30;;;;;;;508.75;464.20;;;;;;;25.90;37.91;99835.63;5052160;28;20296;-73
2022/07/02 10:32:07;;;;;;;547.40;502.00;;;;;;;25.69;38.22;99830.75;5052241;28;20288;-74
2022/07/02 10:34:48;;;;;;;491.65;447.95;;;;;;;25.67;38.59;99834.72;5052839;28;20795;-75
2022/07/02 10:37:16;;;;;;;502.67;458.75;;;;;;;25.80;38.30;99832.22;5052658;28;20259;-75
2022/07/02 10:39:44;;;;;;;544.55;499.02;;;;;;;25.78;38.46;99835.16;5052155;28;20188;-74
2022/07/02 10:42:11;;;;;;;536.88;491.98;;;;;;;26.07;37.30;99847.41;5052530;28;20209;-73
2022/07/02 10:44:39;;;;;;;524.50;480.10;;;;;;;26.24;37.28;99848.16;5052160;28;20362;-74
2022/07/02 10:47:06;;;;;;;553.17;507.58;;;;;;;26.32;36.67;99831.53;5052221;28;20186;-75
2022/07/02 10:49:33;;;;;;;514.88;470.33;;;;;;;26.39;36.75;99824.22;5051720;28;20300;-74
2022/07/02 10:52:04;;;;;;;563.90;518.38;;;;;;;26.29;37.22;99828.28;5052132;28;20643;-74
2022/07/02 10:54:31;;;;;;;555.55;510.30;;;;;;;25.89;37.82;99820.16;5051985;28;20195;-73
2022/07/02 10:57:00;;;;;;;552.28;507.25;;;;;;;25.88;38.20;99818.41;5052323;28;20308;-73
2022/07/02 10:59:28;;;;;;;529.83;484.77;;;;;;;26.06;37.77;99808.97;5051851;28;20280;-73
2022/07/02 11:02:02;;;;;;;568.92;523.22;;;;;;;26.11;37.21;99812.03;5051851;28;20333;-74
2022/07/02 11:04:29;;;;;;;514.88;470.73;;;;;;;26.12;37.61;99811.00;5051566;28;20268;-73
2022/07/02 11:07:06;;;;;;;505.08;460.60;;;;;;;26.14;37.44;99806.13;5051347;28;20304;-74
2022/07/02 11:09:33;;;;;;;537.10;491.90;;;;;;;26.16;37.22;99806.81;5051517;28;20240;-74